createdAt,value
2019-04-29T03:59:30.663Z,2464
2019-04-29T04:09:35.054Z,6858
2019-04-29T04:14:34.390Z,8812
2019-04-29T04:19:33.703Z,10635
2019-04-29T04:29:27.889Z,13165
2019-04-29T04:34:27.479Z,18146
2019-04-29T04:44:27.628Z,18139
2019-04-29T04:49:27.116Z,18451
2019-04-29T04:54:26.366Z,18710
2019-04-29T05:04:25.473Z,19327
2019-04-29T05:09:24.819Z,20196
2019-04-29T05:14:25.325Z,21229
2019-04-29T05:19:24.577Z,21934
2019-04-29T05:24:24.018Z,21915
2019-04-29T05:29:23.442Z,21781
2019-04-29T05:34:23.092Z,22170
2019-04-29T05:39:22.210Z,22937
2019-04-29T05:44:21.599Z,23643
2019-04-29T05:49:21.778Z,23910
2019-04-29T07:09:13.165Z,27009
2019-04-29T07:14:12.272Z,27233
2019-04-29T07:19:12.129Z,27847
2019-04-29T07:24:11.287Z,28437
2019-04-29T07:29:11.432Z,29213
2019-04-29T07:39:09.804Z,30674
2019-04-29T07:49:12.639Z,31239
2019-04-29T07:54:10.990Z,30531
2019-04-29T07:59:07.350Z,30339
2019-04-29T08:04:07.720Z,30815
2019-04-29T08:14:05.812Z,31269
2019-04-29T08:19:06.005Z,31275
2019-04-29T08:24:05.112Z,31442
2019-04-29T08:29:04.223Z,31318
2019-04-29T08:34:04.357Z,31358
2019-04-29T08:39:08.511Z,31516
2019-04-29T08:44:15.604Z,31626
2019-04-29T08:49:05.949Z,31589
2019-04-29T08:54:01.599Z,31579
2019-04-29T08:59:00.894Z,31758
2019-04-29T09:04:00.194Z,32063
2019-04-29T09:13:59.670Z,31882
2019-04-29T09:28:59.652Z,32538
2019-04-29T09:58:56.729Z,32755
2019-04-29T10:03:56.084Z,33262
2019-04-29T10:18:54.304Z,34289
2019-04-29T10:28:53.866Z,33754
2019-04-29T11:13:50.435Z,33966
2019-04-29T11:18:48.425Z,33544
2019-04-29T11:23:50.505Z,33467
2019-04-29T11:28:50.731Z,33310
2019-04-29T11:33:46.672Z,33257
2019-04-29T11:43:46.587Z,33363
2019-04-29T11:48:44.755Z,33749
2019-04-29T11:53:44.130Z,34015
2019-04-29T11:58:43.214Z,33967
2019-04-29T12:03:43.584Z,33902
2019-04-29T12:08:42.673Z,34364
2019-04-29T12:18:41.825Z,34288
2019-04-29T12:28:42.642Z,33979
2019-04-29T12:43:39.259Z,34542
2019-04-29T12:58:37.938Z,33873
2019-04-29T13:03:39.831Z,33911
2019-04-29T13:13:35.509Z,33822
2019-04-29T13:18:35.818Z,33751
2019-04-29T13:23:42.411Z,33696
2019-04-29T13:33:33.985Z,33704
2019-04-29T14:28:27.364Z,33116
2019-04-29T14:48:26.462Z,32223
2019-04-29T14:58:24.303Z,31850
2019-04-29T15:03:23.223Z,31482
2019-04-29T15:08:23.074Z,31523
2019-04-29T15:13:22.496Z,31370
2019-04-29T15:18:32.785Z,31594
2019-04-29T15:23:28.567Z,31602
2019-04-29T15:28:20.849Z,31934
2019-04-29T15:33:20.097Z,31478
2019-04-29T15:38:20.308Z,31970
2019-04-29T15:43:22.870Z,30292
2019-04-29T15:48:18.618Z,30496
2019-04-29T15:53:17.577Z,31159
2019-04-29T15:58:22.469Z,30574
2019-04-29T16:03:18.229Z,30152
2019-04-29T16:08:17.534Z,30062
2019-04-29T16:13:16.320Z,29921
2019-04-29T16:23:14.589Z,29319
2019-04-29T16:28:14.665Z,29291
2019-04-29T16:33:15.720Z,28688
2019-04-29T16:38:14.871Z,27669
2019-04-29T16:43:13.855Z,27500
2019-04-29T16:48:13.817Z,27734
2019-04-29T16:53:12.936Z,27577
2019-04-29T16:58:17.904Z,27043
2019-04-29T17:03:12.498Z,26097
2019-04-29T17:08:15.030Z,25335
2019-04-29T17:18:10.571Z,23849
2019-04-29T17:23:09.482Z,23416
2019-04-29T17:28:11.956Z,22940
2019-04-29T17:33:09.069Z,22108
2019-04-29T17:38:08.900Z,21290
2019-04-29T17:43:08.142Z,20753
2019-04-29T17:48:07.455Z,20366
2019-04-29T17:53:06.331Z,20047
2019-04-29T18:03:05.709Z,18505
2019-04-29T18:08:05.271Z,17041
2019-04-29T18:11:53.580Z,14895
2019-04-29T18:16:49.938Z,14895
2019-04-29T18:16:55.830Z,12382
2019-04-29T18:21:49.250Z,9508
